Time;durP1;ratioP1;P1;durP2;ratioP2;P2;SDS_P1;SDS_P2;PMS_P1;PMS_P2;Temp;Humidity;BMP_temperature;BMP_pressure;BME280_temperature;BME280_humidity;BME280_pressure;Samples;Min_cycle;Max_cycle;Signal;HPM_P1;HPM_P2
2023/01/27 00:00:50;;;;;;;;;;;;;;;;;;5054775;28;995;-43
2023/01/27 00:03:17;;;;;;;;;;;;;;;;;;5054792;28;2129;-45
2023/01/27 00:05:45;;;;;;;;;;;;;;;;;;5054695;28;1910;-44
2023/01/27 00:08:12;;;;;;;;;;;;;;;;;;5054618;28;1395;-44
2023/01/27 00:10:39;;;;;;;;;;;;;;;;;;5054629;28;1856;-42
2023/01/27 00:13:27;;;;;;;;;;;;;;;;;;5054341;28;1973;-46
2023/01/27 00:15:54;;;;;;;;;;;;;;;;;;5054301;28;2042;-43
2023/01/27 00:18:22;;;;;;;;;;;;;;;;;;5054506;28;1869;-44
2023/01/27 00:26:22;;;;;;;;;;;;;;;;;;5053405;28;1556;-44
2023/01/27 00:28:49;;;;;;;;;;;;;;;;;;5034184;28;2071;-41
2023/01/27 00:34:09;;;;;;;;;;;;;;;;;;5016176;28;1489;-41
2023/01/27 00:36:38;;;;;;;;;;;;;;;;;;5034021;28;1804;-42
2023/01/27 00:39:07;;;;;;;;;;;;;;;;;;5016209;28;2338;-44
2023/01/27 00:41:34;;;;;;;;;;;;;;;;;;5034146;28;1783;-43
2023/01/27 00:44:03;;;;;;;;;;;;;;;;;;5015928;28;1904;-43
2023/01/27 00:46:31;;;;;;;;;;;;;;;;;;5033879;28;2181;-45
2023/01/27 00:48:59;;;;;;;;;;;;;;;;;;5034201;28;2085;-42
2023/01/27 00:51:28;;;;;;;;;;;;;;;;;;5034033;28;1847;-45
2023/01/27 00:53:55;;;;;;;;;;;;;;;;;;5033987;28;2010;-44
2023/01/27 00:56:22;;;;;;;;;;;;;;;;;;5033872;28;1480;-45
2023/01/27 00:58:50;;;;;;;;;;;;;;;;;;5033663;28;1935;-40
2023/01/27 01:01:17;;;;;;;;;;;;;;;;;;5033930;28;2116;-42
2023/01/27 01:03:44;;;;;;;;;;;;;;;;;;5033969;28;1883;-42
2023/01/27 01:06:14;;;;;;;;;;;;;;;;;;5031974;28;1906;-42
2023/01/27 01:08:41;;;;;;;;;;;;;;;;;;5033618;28;1748;-45
2023/01/27 01:11:12;;;;;;;;;;;;;;;;;;5033665;28;1386;-43
2023/01/27 01:13:42;;;;;;;;;;;;;;;;;;5033402;28;1372;-44
2023/01/27 01:16:14;;;;;;;;;;;;;;;;;;5033221;28;1778;-45
2023/01/27 01:18:42;;;;;;;;;;;;;;;;;;5032227;28;1925;-43
2023/01/27 01:21:10;;;;;;;;;;;;;;;;;;5033443;28;2052;-41
2023/01/27 01:23:38;;;;;;;;;;;;;;;;;;5032113;28;2262;-41
2023/01/27 01:26:09;;;;;;;;;;;;;;;;;;5033176;28;1937;-46
2023/01/27 01:28:37;;;;;;;;;;;;;;;;;;5051400;28;1749;-43
2023/01/27 01:31:06;;;;;;;;;;;;;;;;;;5051915;28;1709;-43
2023/01/27 01:33:34;;;;;;;;;;;;;;;;;;5052908;28;1765;-41
2023/01/27 01:36:05;;;;;;;;;;;;;;;;;;5053128;28;1188;-43
2023/01/27 01:38:34;;;;;;;;;;;;;;;;;;5051545;28;1578;-41
2023/01/27 01:41:02;;;;;;;;;;;;;;;;;;5053146;28;1819;-43
2023/01/27 01:43:29;;;;;;;;;;;;;;;;;;5053044;28;2225;-43
2023/01/27 01:45:57;;;;;;;;;;;;;;;;;;5052737;28;2158;-42
2023/01/27 01:48:29;;;;;;;;;;;;;;;;;;5052837;28;1482;-47
2023/01/27 01:51:04;;;;;;;;;;;;;;;;;;5051184;28;1924;-44
2023/01/27 01:53:34;;;;;;;;;;;;;;;;;;5052727;28;1765;-43
2023/01/27 01:56:07;;;;;;;;;;;;;;;;;;5051502;28;1914;-43
2023/01/27 01:58:34;;;;;;;;;;;;;;;;;;5051273;28;1913;-41
2023/01/27 02:01:03;;;;;;;;;;;;;;;;;;5052367;28;1679;-42
2023/01/27 02:03:31;;;;;;;;;;;;;;;;;;5052486;28;1818;-41
2023/01/27 02:05:59;;;;;;;;;;;;;;;;;;5052306;28;1974;-43
2023/01/27 02:08:38;;;;;;;;;;;;;;;;;;5050971;28;1934;-42
2023/01/27 02:11:07;;;;;;;;;;;;;;;;;;5051340;28;2192;-42
2023/01/27 02:13:36;;;;;;;;;;;;;;;;;;5052298;28;1802;-41
2023/01/27 02:16:04;;;;;;;;;;;;;;;;;;5052466;28;1446;-45
2023/01/27 02:18:31;;;;;;;;;;;;;;;;;;5051918;28;1975;-42
2023/01/27 02:20:59;;;;;;;;;;;;;;;;;;5052065;28;1582;-44
2023/01/27 02:23:32;;;;;;;;;;;;;;;;;;5052189;28;1491;-41
2023/01/27 02:26:13;;;;;;;;;;;;;;;;;;5034120;28;2072;-42
2023/01/27 02:28:41;;;;;;;;;;;;;;;;;;5051791;28;2039;-44
2023/01/27 02:31:08;;;;;;;;;;;;;;;;;;5052112;28;1506;-42
2023/01/27 02:33:35;;;;;;;;;;;;;;;;;;5050685;28;1407;-42
2023/01/27 02:36:06;;;;;;;;;;;;;;;;;;5051948;28;1977;-43
2023/01/27 02:38:39;;;;;;;;;;;;;;;;;;5052026;28;1757;-45
2023/01/27 02:41:26;;;;;;;;;;;;;;;;;;5050409;28;2044;-43
2023/01/27 02:43:54;;;;;;;;;;;;;;;;;;5034647;28;1440;-44
2023/01/27 02:46:22;;;;;;;;;;;;;;;;;;5051682;28;1910;-42
2023/01/27 02:48:49;;;;;;;;;;;;;;;;;;5051713;28;1837;-43
2023/01/27 02:51:16;;;;;;;;;;;;;;;;;;5051390;28;1995;-43
2023/01/27 02:53:44;;;;;;;;;;;;;;;;;;5050091;28;1578;-44
2023/01/27 02:56:11;;;;;;;;;;;;;;;;;;5051731;28;1901;-44
2023/01/27 02:58:41;;;;;;;;;;;;;;;;;;5050065;28;1807;-42
2023/01/27 03:01:14;;;;;;;;;;;;;;;;;;5050031;28;1605;-42
2023/01/27 03:03:45;;;;;;;;;;;;;;;;;;5051270;28;1893;-42
2023/01/27 03:06:18;;;;;;;;;;;;;;;;;;5051287;28;1979;-43
2023/01/27 03:08:47;;;;;;;;;;;;;;;;;;5049982;28;1885;-41
2023/01/27 03:12:18;;;;;;;;;;;;;;;;;;5049997;28;1762;-42
2023/01/27 03:14:03;;;;;;;;;;;;;;;;;;5051254;28;2260;-41
2023/01/27 03:19:16;;;;;;;;;;;;;;;;;;5050002;28;2030;-42
2023/01/27 03:21:44;;;;;;;;;;;;;;;;;;5051283;28;1011;-43
2023/01/27 03:24:11;;;;;;;;;;;;;;;;;;5049726;28;1734;-42
2023/01/27 03:26:39;;;;;;;;;;;;;;;;;;5049469;28;1975;-42
2023/01/27 03:31:54;;;;;;;;;;;;;;;;;;5051054;28;1740;-45
2023/01/27 03:34:22;;;;;;;;;;;;;;;;;;5032885;28;1504;-41
2023/01/27 03:47:59;;;;;;;;;;;;;;;;;;5050906;28;1689;-40
2023/01/27 03:50:36;;;;;;;;;;;;;;;;;;5051070;28;1864;-42
2023/01/27 03:53:04;;;;;;;;;;;;;;;;;;5050822;28;1634;-42
2023/01/27 03:55:32;;;;;;;;;;;;;;;;;;5050811;28;2080;-42
2023/01/27 03:58:17;;;;;;;;;;;;;;;;;;5050706;28;1778;-44
2023/01/27 04:00:50;;;;;;;;;;;;;;;;;;5050723;28;1929;-42
2023/01/27 04:08:55;;;;;;;;;;;;;;;;;;5050804;28;1929;-43
2023/01/27 04:14:09;;;;;;;;;;;;;;;;;;5050783;28;1940;-43
2023/01/27 04:16:36;;;;;;;;;;;;;;;;;;5050383;28;1930;-45
2023/01/27 04:19:04;;;;;;;;;;;;;;;;;;5050538;28;2133;-43
2023/01/27 04:21:31;;;;;;;;;;;;;;;;;;5050702;28;2020;-40
2023/01/27 04:23:59;;;;;;;;;;;;;;;;;;5050854;28;1588;-45
2023/01/27 04:26:32;;;;;;;;;;;;;;;;;;5049642;28;2040;-43
2023/01/27 04:29:03;;;;;;;;;;;;;;;;;;5050866;28;1964;-42
2023/01/27 04:31:31;;;;;;;;;;;;;;;;;;5050706;28;2147;-43
2023/01/27 04:33:58;;;;;;;;;;;;;;;;;;5050462;28;1849;-43
2023/01/27 04:36:26;;;;;;;;;;;;;;;;;;5049263;28;2279;-41
2023/01/27 04:38:53;;;;;;;;;;;;;;;;;;5050415;28;1604;-43
2023/01/27 04:41:20;;;;;;;;;;;;;;;;;;5053100;28;1826;-43
2023/01/27 04:43:47;;;;;;;;;;;;;;;;;;5052566;28;2323;-42
2023/01/27 04:46:15;;;;;;;;;;;;;;;;;;5053934;28;1983;-43
2023/01/27 04:48:42;;;;;;;;;;;;;;;;;;5054059;28;1630;-41
2023/01/27 04:51:09;;;;;;;;;;;;;;;;;;5053998;28;1833;-42
2023/01/27 04:53:36;;;;;;;;;;;;;;;;;;5054067;28;1513;-41
2023/01/27 04:56:21;;;;;;;;;;;;;;;;;;5053776;28;2007;-41
2023/01/27 04:58:48;;;;;;;;;;;;;;;;;;5053953;28;2119;-42
2023/01/27 05:01:18;;;;;;;;;;;;;;;;;;5053760;28;2163;-42
2023/01/27 05:03:45;;;;;;;;;;;;;;;;;;5053812;28;1937;-43
2023/01/27 05:06:16;;;;;;;;;;;;;;;;;;5053358;28;1981;-41
2023/01/27 05:08:43;;;;;;;;;;;;;;;;;;5053369;28;1707;-43
2023/01/27 05:11:10;;;;;;;;;;;;;;;;;;5038801;28;1802;-44
2023/01/27 05:13:39;;;;;;;;;;;;;;;;;;5033370;28;1578;-43
2023/01/27 05:16:14;;;;;;;;;;;;;;;;;;5033508;28;2040;-43
2023/01/27 05:18:42;;;;;;;;;;;;;;;;;;5033474;28;1732;-42
2023/01/27 05:21:12;;;;;;;;;;;;;;;;;;5033530;28;1252;-43
2023/01/27 05:23:39;;;;;;;;;;;;;;;;;;5033534;28;1863;-45
2023/01/27 05:26:13;;;;;;;;;;;;;;;;;;5033343;28;1902;-43
2023/01/27 05:28:41;;;;;;;;;;;;;;;;;;5053096;28;1497;-44
2023/01/27 05:31:11;;;;;;;;;;;;;;;;;;5053091;28;1780;-43
2023/01/27 05:33:39;;;;;;;;;;;;;;;;;;5053119;28;1888;-42
2023/01/27 05:36:07;;;;;;;;;;;;;;;;;;5048074;28;9638;-40
2023/01/27 05:38:34;;;;;;;;;;;;;;;;;;5053418;28;1954;-48
2023/01/27 05:41:03;;;;;;;;;;;;;;;;;;5053489;28;1430;-44
2023/01/27 05:43:31;;;;;;;;;;;;;;;;;;5052837;28;1534;-44
2023/01/27 05:46:18;;;;;;;;;;;;;;;;;;5053075;28;1904;-42
2023/01/27 05:48:46;;;;;;;;;;;;;;;;;;5051839;28;1980;-43
2023/01/27 05:51:14;;;;;;;;;;;;;;;;;;5052744;28;1770;-42
2023/01/27 05:53:42;;;;;;;;;;;;;;;;;;5052143;28;1874;-44
2023/01/27 05:56:10;;;;;;;;;;;;;;;;;;5051668;28;1774;-43
2023/01/27 05:58:38;;;;;;;;;;;;;;;;;;5052645;28;2462;-41
2023/01/27 06:01:10;;;;;;;;;;;;;;;;;;5053102;28;2143;-44
2023/01/27 06:03:38;;;;;;;;;;;;;;;;;;5052878;28;1267;-41
2023/01/27 06:06:06;;;;;;;;;;;;;;;;;;5052678;28;1910;-43
2023/01/27 06:08:34;;;;;;;;;;;;;;;;;;5052809;28;1574;-44
2023/01/27 06:11:02;;;;;;;;;;;;;;;;;;5052512;28;1534;-43
2023/01/27 06:13:29;;;;;;;;;;;;;;;;;;5052466;28;1889;-44
2023/01/27 06:15:56;;;;;;;;;;;;;;;;;;5052375;28;2215;-44
2023/01/27 06:18:23;;;;;;;;;;;;;;;;;;5052258;28;1572;-44
2023/01/27 06:20:51;;;;;;;;;;;;;;;;;;5052290;28;1799;-44
2023/01/27 06:23:18;;;;;;;;;;;;;;;;;;5052327;28;1401;-43
2023/01/27 06:25:47;;;;;;;;;;;;;;;;;;5050782;28;1906;-40
2023/01/27 06:28:14;;;;;;;;;;;;;;;;;;5051983;28;1863;-44
2023/01/27 06:30:54;;;;;;;;;;;;;;;;;;5051794;28;1591;-44
2023/01/27 06:33:22;;;;;;;;;;;;;;;;;;5051724;28;2081;-46
2023/01/27 06:35:49;;;;;;;;;;;;;;;;;;5050375;28;1912;-42
2023/01/27 06:38:16;;;;;;;;;;;;;;;;;;5051507;28;1847;-44
2023/01/27 06:40:43;;;;;;;;;;;;;;;;;;5050516;28;1923;-41
2023/01/27 06:43:12;;;;;;;;;;;;;;;;;;5051916;28;2133;-41
2023/01/27 06:45:40;;;;;;;;;;;;;;;;;;5051916;28;1973;-42
2023/01/27 06:48:14;;;;;;;;;;;;;;;;;;5051610;28;1742;-42
2023/01/27 06:50:41;;;;;;;;;;;;;;;;;;5033781;28;2185;-43
2023/01/27 06:53:08;;;;;;;;;;;;;;;;;;5051559;28;1966;-41
2023/01/27 06:55:40;;;;;;;;;;;;;;;;;;5051946;28;1789;-43
2023/01/27 06:58:08;;;;;;;;;;;;;;;;;;5051641;28;1507;-45
2023/01/27 07:00:36;;;;;;;;;;;;;;;;;;5051460;28;1516;-44
2023/01/27 07:03:03;;;;;;;;;;;;;;;;;;5051167;28;1993;-43
2023/01/27 07:05:31;;;;;;;;;;;;;;;;;;5050835;28;2259;-45
2023/01/27 07:07:58;;;;;;;;;;;;;;;;;;5051371;28;1904;-47
2023/01/27 07:10:26;;;;;;;;;;;;;;;;;;5051061;28;1569;-49
2023/01/27 07:13:02;;;;;;;;;;;;;;;;;;5051455;28;1558;-46
2023/01/27 07:15:31;;;;;;;;;;;;;;;;;;5051272;28;2481;-48
2023/01/27 07:17:59;;;;;;;;;;;;;;;;;;5051269;28;1988;-43
2023/01/27 07:20:27;;;;;;;;;;;;;;;;;;5050902;28;2237;-43
2023/01/27 07:23:03;;;;;;;;;;;;;;;;;;5051088;28;1991;-43
2023/01/27 07:25:30;;;;;;;;;;;;;;;;;;5051295;28;1695;-45
2023/01/27 07:27:58;;;;;;;;;;;;;;;;;;5036889;28;1906;-40
2023/01/27 07:30:26;;;;;;;;;;;;;;;;;;5030695;28;1694;-42
2023/01/27 07:32:54;;;;;;;;;;;;;;;;;;5031075;28;2012;-44
2023/01/27 07:35:22;;;;;;;;;;;;;;;;;;5031014;28;1400;-42
2023/01/27 07:37:51;;;;;;;;;;;;;;;;;;5031045;28;1711;-42
2023/01/27 07:40:18;;;;;;;;;;;;;;;;;;5030975;28;1670;-42
2023/01/27 07:42:45;;;;;;;;;;;;;;;;;;5030958;28;1541;-44
2023/01/27 07:45:14;;;;;;;;;;;;;;;;;;5013273;28;2153;-40
2023/01/27 07:47:41;;;;;;;;;;;;;;;;;;5031048;28;2048;-44
2023/01/27 07:50:08;;;;;;;;;;;;;;;;;;5031055;28;1490;-44
2023/01/27 07:52:35;;;;;;;;;;;;;;;;;;5030950;28;1963;-44
2023/01/27 07:55:03;;;;;;;;;;;;;;;;;;5030987;28;1700;-42
2023/01/27 07:57:30;;;;;;;;;;;;;;;;;;5031220;28;1873;-41
2023/01/27 07:59:57;;;;;;;;;;;;;;;;;;5031022;28;1280;-44
2023/01/27 08:02:27;;;;;;;;;;;;;;;;;;5030970;28;1840;-44
2023/01/27 08:04:54;;;;;;;;;;;;;;;;;;5030968;28;1403;-42
2023/01/27 08:07:21;;;;;;;;;;;;;;;;;;5030594;28;1914;-42
2023/01/27 08:09:49;;;;;;;;;;;;;;;;;;5030901;28;2011;-41
2023/01/27 08:12:16;;;;;;;;;;;;;;;;;;5030680;28;1583;-43
2023/01/27 08:14:43;;;;;;;;;;;;;;;;;;5030934;28;1792;-41
2023/01/27 08:17:11;;;;;;;;;;;;;;;;;;5035050;28;1101;-44
2023/01/27 08:19:38;;;;;;;;;;;;;;;;;;5034528;28;1680;-44
2023/01/27 08:22:05;;;;;;;;;;;;;;;;;;5034762;28;1474;-43
2023/01/27 08:24:32;;;;;;;;;;;;;;;;;;5034492;28;1272;-44
2023/01/27 08:26:59;;;;;;;;;;;;;;;;;;5040328;28;1908;-42
2023/01/27 08:29:28;;;;;;;;;;;;;;;;;;5054523;28;2313;-44
2023/01/27 08:31:55;;;;;;;;;;;;;;;;;;5054219;28;2146;-42
2023/01/27 08:34:22;;;;;;;;;;;;;;;;;;5054287;28;1439;-42
2023/01/27 08:36:52;;;;;;;;;;;;;;;;;;5036325;28;2292;-42
2023/01/27 08:39:19;;;;;;;;;;;;;;;;;;5054143;28;1296;-42
2023/01/27 08:41:46;;;;;;;;;;;;;;;;;;5054648;28;1994;-44
2023/01/27 08:44:13;;;;;;;;;;;;;;;;;;5054276;28;1713;-42
2023/01/27 08:46:40;;;;;;;;;;;;;;;;;;5053922;28;1976;-42
2023/01/27 08:49:08;;;;;;;;;;;;;;;;;;5054272;28;1488;-43
2023/01/27 08:51:35;;;;;;;;;;;;;;;;;;5054096;28;2020;-42
2023/01/27 08:54:04;;;;;;;;;;;;;;;;;;5053948;28;2076;-40
2023/01/27 08:56:31;;;;;;;;;;;;;;;;;;5053773;28;1970;-45
2023/01/27 08:58:58;;;;;;;;;;;;;;;;;;5054104;28;2216;-43
2023/01/27 09:01:25;;;;;;;;;;;;;;;;;;5032851;28;1840;-44
2023/01/27 09:03:53;;;;;;;;;;;;;;;;;;5035002;28;1968;-44
2023/01/27 09:06:20;;;;;;;;;;;;;;;;;;5053360;28;1913;-42
2023/01/27 09:09:09;;;;;;;;;;;;;;;;;;5053788;28;1953;-44
2023/01/27 09:11:39;;;;;;;;;;;;;;;;;;5053756;28;2151;-42
2023/01/27 09:14:07;;;;;;;;;;;;;;;;;;5053555;28;2258;-42
2023/01/27 09:16:34;;;;;;;;;;;;;;;;;;5053873;28;1718;-42
2023/01/27 09:19:02;;;;;;;;;;;;;;;;;;5053366;28;1955;-42
2023/01/27 09:21:30;;;;;;;;;;;;;;;;;;5053659;28;1807;-41
2023/01/27 09:23:57;;;;;;;;;;;;;;;;;;5053512;28;1545;-43
2023/01/27 09:26:24;;;;;;;;;;;;;;;;;;5052710;28;1908;-42
2023/01/27 09:28:52;;;;;;;;;;;;;;;;;;5053171;28;1525;-43
2023/01/27 09:31:19;;;;;;;;;;;;;;;;;;5053332;28;1570;-42
2023/01/27 09:33:46;;;;;;;;;;;;;;;;;;5053290;28;2138;-41
2023/01/27 09:36:16;;;;;;;;;;;;;;;;;;5053300;28;1448;-43
2023/01/27 09:38:55;;;;;;;;;;;;;;;;;;5035210;28;2059;-44
2023/01/27 09:41:35;;;;;;;;;;;;;;;;;;5033351;28;1700;-43
2023/01/27 09:44:28;;;;;;;;;;;;;;;;;;5032882;28;1818;-44
2023/01/27 09:47:08;;;;;;;;;;;;;;;;;;5030045;28;1969;-45
2023/01/27 09:49:43;;;;;;;;;;;;;;;;;;5033229;28;1296;-42
2023/01/27 09:52:21;;;;;;;;;;;;;;;;;;5032865;28;2019;-42
2023/01/27 09:54:57;;;;;;;;;;;;;;;;;;5033267;28;1679;-42
2023/01/27 09:57:42;;;;;;;;;;;;;;;;;;5032887;28;1750;-43
2023/01/27 10:00:19;;;;;;;;;;;;;;;;;;5032609;28;1761;-42
2023/01/27 10:02:58;;;;;;;;;;;;;;;;;;5033378;28;1938;-45
2023/01/27 10:05:38;;;;;;;;;;;;;;;;;;5032699;28;2005;-42
2023/01/27 10:08:05;;;;;;;;;;;;;;;;;;5048074;28;1910;-43
2023/01/27 10:10:39;;;;;;;;;;;;;;;;;;5032632;28;1765;-45
2023/01/27 10:13:12;;;;;;;;;;;;;;;;;;5032472;28;1743;-42
2023/01/27 10:15:51;;;;;;;;;;;;;;;;;;5032760;28;2108;-43
2023/01/27 10:18:35;;;;;;;;;;;;;;;;;;5032690;28;1732;-45
2023/01/27 10:21:18;;;;;;;;;;;;;;;;;;5032487;28;1887;-43
2023/01/27 10:23:45;;;;;;;;;;;;;;;;;;5032487;28;1912;-42
2023/01/27 10:26:18;;;;;;;;;;;;;;;;;;5032517;28;1791;-44
2023/01/27 10:28:49;;;;;;;;;;;;;;;;;;5051999;28;1977;-43
2023/01/27 10:31:28;;;;;;;;;;;;;;;;;;5051985;28;1231;-42
2023/01/27 10:34:00;;;;;;;;;;;;;;;;;;5051841;28;1849;-42
2023/01/27 10:36:34;;;;;;;;;;;;;;;;;;5052124;28;1218;-45
2023/01/27 10:39:12;;;;;;;;;;;;;;;;;;5052042;28;1978;-43
2023/01/27 10:41:39;;;;;;;;;;;;;;;;;;5051760;28;1272;-44
2023/01/27 10:44:28;;;;;;;;;;;;;;;;;;5051924;28;1902;-42
2023/01/27 10:47:05;;;;;;;;;;;;;;;;;;5051818;28;2212;-45
2023/01/27 10:49:42;;;;;;;;;;;;;;;;;;5051572;28;1272;-45
2023/01/27 10:52:18;;;;;;;;;;;;;;;;;;5051773;28;1889;-42
2023/01/27 10:54:52;;;;;;;;;;;;;;;;;;5051506;28;2137;-44
2023/01/27 10:57:25;;;;;;;;;;;;;;;;;;5033726;28;2101;-42
2023/01/27 11:00:22;;;;;;;;;;;;;;;;;;5052025;28;1503;-45
2023/01/27 11:03:16;;;;;;;;;;;;;;;;;;5047093;28;1806;-42
2023/01/27 11:05:45;;;;;;;;;;;;;;;;;;5051475;28;1797;-42
2023/01/27 11:08:17;;;;;;;;;;;;;;;;;;5051426;28;1921;-43
2023/01/27 11:13:42;;;;;;;;;;;;;;;;;;5051400;28;1982;-44
2023/01/27 11:16:13;;;;;;;;;;;;;;;;;;5051222;28;1653;-42
2023/01/27 11:18:42;;;;;;;;;;;;;;;;;;5051246;28;1801;-44
2023/01/27 11:21:17;;;;;;;;;;;;;;;;;;5051148;28;2001;-41
2023/01/27 11:23:52;;;;;;;;;;;;;;;;;;5051101;28;1836;-40
2023/01/27 11:26:38;;;;;;;;;;;;;;;;;;5050580;28;2135;-42
2023/01/27 11:29:24;;;;;;;;;;;;;;;;;;5031154;28;2257;-45
2023/01/27 11:32:02;;;;;;;;;;;;;;;;;;5031239;28;2052;-42
2023/01/27 11:34:50;;;;;;;;;;;;;;;;;;5009910;28;1295;-45
2023/01/27 11:37:17;;;;;;;;;;;;;;;;;;5011487;28;2061;-44
2023/01/27 11:39:44;;;;;;;;;;;;;;;;;;5010998;28;1709;-42
2023/01/27 11:42:11;;;;;;;;;;;;;;;;;;5011388;28;1951;-43
2023/01/27 11:44:39;;;;;;;;;;;;;;;;;;5011239;28;2325;-45
2023/01/27 11:47:07;;;;;;;;;;;;;;;;;;5011393;28;1981;-42
2023/01/27 11:49:41;;;;;;;;;;;;;;;;;;5010811;28;1855;-43
2023/01/27 11:52:13;;;;;;;;;;;;;;;;;;5011322;28;2017;-44
2023/01/27 11:54:52;;;;;;;;;;;;;;;;;;5011057;28;2016;-42
2023/01/27 11:57:21;;;;;;;;;;;;;;;;;;5010950;28;1987;-42
2023/01/27 12:00:17;;;;;;;;;;;;;;;;;;5011131;28;2138;-42
2023/01/27 12:02:53;;;;;;;;;;;;;;;;;;5010382;28;1387;-43
2023/01/27 12:05:26;;;;;;;;;;;;;;;;;;5011166;28;1917;-44
2023/01/27 12:07:54;;;;;;;;;;;;;;;;;;5011098;28;2152;-43
2023/01/27 12:10:47;;;;;;;;;;;;;;;;;;5010785;28;1934;-44
2023/01/27 12:13:16;;;;;;;;;;;;;;;;;;5011027;28;1641;-43
2023/01/27 12:15:47;;;;;;;;;;;;;;;;;;5010963;28;1354;-43
2023/01/27 12:18:15;;;;;;;;;;;;;;;;;;5010827;28;1446;-44
2023/01/27 12:20:44;;;;;;;;;;;;;;;;;;5010883;28;1518;-43
2023/01/27 12:23:23;;;;;;;;;;;;;;;;;;5010976;28;1643;-43
2023/01/27 12:25:57;;;;;;;;;;;;;;;;;;5010780;28;1940;-42
2023/01/27 12:28:29;;;;;;;;;;;;;;;;;;5027994;28;1914;-41
2023/01/27 12:31:01;;;;;;;;;;;;;;;;;;5030781;28;1862;-44
2023/01/27 12:33:30;;;;;;;;;;;;;;;;;;5041268;28;1824;-43
2023/01/27 12:36:00;;;;;;;;;;;;;;;;;;5050812;28;1634;-43
2023/01/27 12:38:30;;;;;;;;;;;;;;;;;;5050625;28;1989;-42
2023/01/27 12:41:03;;;;;;;;;;;;;;;;;;5050709;28;1443;-42
2023/01/27 12:43:30;;;;;;;;;;;;;;;;;;5050624;28;2421;-43
2023/01/27 12:46:09;;;;;;;;;;;;;;;;;;5051034;28;2021;-41
2023/01/27 12:48:48;;;;;;;;;;;;;;;;;;5050280;28;1938;-44
2023/01/27 12:51:20;;;;;;;;;;;;;;;;;;5050402;28;1529;-43
2023/01/27 12:53:49;;;;;;;;;;;;;;;;;;5050364;28;2047;-43
2023/01/27 12:56:21;;;;;;;;;;;;;;;;;;5050327;28;1740;-42
2023/01/27 12:58:54;;;;;;;;;;;;;;;;;;5050218;28;1162;-44
2023/01/27 13:01:32;;;;;;;;;;;;;;;;;;5050437;28;2011;-42
2023/01/27 13:04:02;;;;;;;;;;;;;;;;;;5053609;28;1726;-44
2023/01/27 13:06:32;;;;;;;;;;;;;;;;;;5054280;28;1401;-43
2023/01/27 13:09:00;;;;;;;;;;;;;;;;;;5053804;28;1913;-44
2023/01/27 13:11:39;;;;;;;;;;;;;;;;;;5053687;28;2076;-42
2023/01/27 13:14:16;;;;;;;;;;;;;;;;;;5043843;28;1978;-42
2023/01/27 13:16:50;;;;;;;;;;;;;;;;;;5033605;28;1638;-42
2023/01/27 13:19:19;;;;;;;;;;;;;;;;;;5033273;28;1904;-43
2023/01/27 13:21:49;;;;;;;;;;;;;;;;;;5033251;28;2150;-43
2023/01/27 13:24:20;;;;;;;;;;;;;;;;;;5033547;28;1983;-44
2023/01/27 13:26:49;;;;;;;;;;;;;;;;;;5037538;28;1974;-42
2023/01/27 13:29:24;;;;;;;;;;;;;;;;;;5053384;28;1982;-42
2023/01/27 13:31:55;;;;;;;;;;;;;;;;;;5053545;28;2247;-42
2023/01/27 13:34:41;;;;;;;;;;;;;;;;;;5053077;28;2204;-39
2023/01/27 13:37:08;;;;;;;;;;;;;;;;;;5034516;28;1169;-43
2023/01/27 13:39:47;;;;;;;;;;;;;;;;;;5033415;28;1701;-42
2023/01/27 13:42:15;;;;;;;;;;;;;;;;;;5033247;28;1550;-42
2023/01/27 13:44:48;;;;;;;;;;;;;;;;;;5033533;28;2142;-42
2023/01/27 13:47:21;;;;;;;;;;;;;;;;;;5033067;28;1679;-44
2023/01/27 13:50:01;;;;;;;;;;;;;;;;;;5032852;28;1911;-41
2023/01/27 13:52:28;;;;;;;;;;;;;;;;;;5033023;28;2119;-43
2023/01/27 13:54:56;;;;;;;;;;;;;;;;;;5033122;28;1647;-44
2023/01/27 13:57:31;;;;;;;;;;;;;;;;;;5032941;28;1262;-44
2023/01/27 14:00:18;;;;;;;;;;;;;;;;;;5032756;28;1560;-43
2023/01/27 14:02:54;;;;;;;;;;;;;;;;;;5032985;28;1650;-43
2023/01/27 14:05:47;;;;;;;;;;;;;;;;;;5032714;28;1962;-44
2023/01/27 14:08:15;;;;;;;;;;;;;;;;;;5032434;28;1981;-43
2023/01/27 14:10:59;;;;;;;;;;;;;;;;;;5032898;28;1901;-44
2023/01/27 14:13:42;;;;;;;;;;;;;;;;;;5032197;28;2019;-42
2023/01/27 14:16:22;;;;;;;;;;;;;;;;;;5032660;28;2041;-41
2023/01/27 14:18:54;;;;;;;;;;;;;;;;;;5032526;28;1158;-44
2023/01/27 14:21:23;;;;;;;;;;;;;;;;;;5032522;28;1327;-48
2023/01/27 14:24:08;;;;;;;;;;;;;;;;;;5032623;28;1774;-46
2023/01/27 14:26:35;;;;;;;;;;;;;;;;;;5035127;28;1576;-49
2023/01/27 14:29:21;;;;;;;;;;;;;;;;;;5052118;28;1967;-44
2023/01/27 14:31:57;;;;;;;;;;;;;;;;;;5052225;28;1597;-40
2023/01/27 14:34:28;;;;;;;;;;;;;;;;;;5052035;28;2079;-42
2023/01/27 14:37:02;;;;;;;;;;;;;;;;;;5052216;28;1636;-43
2023/01/27 14:39:29;;;;;;;;;;;;;;;;;;5052077;28;1404;-42
2023/01/27 14:42:00;;;;;;;;;;;;;;;;;;5051800;28;1406;-44
2023/01/27 14:44:35;;;;;;;;;;;;;;;;;;5051907;28;1919;-45
2023/01/27 14:47:22;;;;;;;;;;;;;;;;;;5051853;28;1949;-42
2023/01/27 14:50:08;;;;;;;;;;;;;;;;;;5051652;28;1912;-41
2023/01/27 14:52:51;;;;;;;;;;;;;;;;;;5052303;28;1832;-44
2023/01/27 14:55:18;;;;;;;;;;;;;;;;;;5051852;28;1733;-44
2023/01/27 14:57:51;;;;;;;;;;;;;;;;;;5051795;28;1414;-42
2023/01/27 15:00:37;;;;;;;;;;;;;;;;;;5051468;28;1659;-43
2023/01/27 15:03:28;;;;;;;;;;;;;;;;;;5051446;28;1751;-41
2023/01/27 15:06:01;;;;;;;;;;;;;;;;;;5051455;28;1691;-43
2023/01/27 15:08:38;;;;;;;;;;;;;;;;;;5051353;28;2099;-43
2023/01/27 15:11:24;;;;;;;;;;;;;;;;;;5051413;28;1656;-41
2023/01/27 15:13:54;;;;;;;;;;;;;;;;;;5051427;28;1679;-44
2023/01/27 15:16:24;;;;;;;;;;;;;;;;;;5051458;28;1607;-42
2023/01/27 15:18:54;;;;;;;;;;;;;;;;;;5051057;28;1795;-42
2023/01/27 15:21:30;;;;;;;;;;;;;;;;;;5049961;28;1820;-44
2023/01/27 15:24:03;;;;;;;;;;;;;;;;;;5051159;28;1699;-45
2023/01/27 15:26:31;;;;;;;;;;;;;;;;;;5048804;28;1473;-43
2023/01/27 15:28:59;;;;;;;;;;;;;;;;;;5031116;28;1973;-43
2023/01/27 15:31:27;;;;;;;;;;;;;;;;;;5031459;28;1722;-44
2023/01/27 15:34:13;;;;;;;;;;;;;;;;;;5045110;28;2188;-44
2023/01/27 15:36:59;;;;;;;;;;;;;;;;;;5050321;28;1635;-41
2023/01/27 15:39:27;;;;;;;;;;;;;;;;;;5049061;28;1241;-43
2023/01/27 15:42:09;;;;;;;;;;;;;;;;;;5049051;28;1300;-45
2023/01/27 15:44:40;;;;;;;;;;;;;;;;;;5049418;28;1742;-41
2023/01/27 15:47:22;;;;;;;;;;;;;;;;;;5049131;28;1688;-41
2023/01/27 15:50:12;;;;;;;;;;;;;;;;;;5049164;28;1971;-42
2023/01/27 15:52:39;;;;;;;;;;;;;;;;;;5031777;28;1701;-42
2023/01/27 15:55:07;;;;;;;;;;;;;;;;;;5050694;28;2076;-42
2023/01/27 15:57:35;;;;;;;;;;;;;;;;;;5051087;28;1722;-43
2023/01/27 16:00:14;;;;;;;;;;;;;;;;;;5050853;28;2177;-43
2023/01/27 16:02:49;;;;;;;;;;;;;;;;;;5051074;28;1593;-46
2023/01/27 16:05:23;;;;;;;;;;;;;;;;;;5050671;28;1302;-43
2023/01/27 16:07:52;;;;;;;;;;;;;;;;;;5050856;28;1780;-42
2023/01/27 16:10:20;;;;;;;;;;;;;;;;;;5050733;28;1977;-43
2023/01/27 16:12:48;;;;;;;;;;;;;;;;;;5051007;28;1878;-42
2023/01/27 16:15:19;;;;;;;;;;;;;;;;;;5050867;28;1751;-47
2023/01/27 16:18:05;;;;;;;;;;;;;;;;;;5050327;28;2288;-42
2023/01/27 16:20:57;;;;;;;;;;;;;;;;;;5050739;28;1917;-45
2023/01/27 16:23:27;;;;;;;;;;;;;;;;;;5049809;28;1876;-43
2023/01/27 16:26:02;;;;;;;;;;;;;;;;;;5050140;28;1807;-45
2023/01/27 16:28:29;;;;;;;;;;;;;;;;;;5032224;28;1981;-45
2023/01/27 16:31:00;;;;;;;;;;;;;;;;;;5030675;28;1477;-42
2023/01/27 16:33:32;;;;;;;;;;;;;;;;;;5030478;28;1868;-43
2023/01/27 16:36:07;;;;;;;;;;;;;;;;;;5030994;28;1732;-45
2023/01/27 16:38:38;;;;;;;;;;;;;;;;;;5034332;28;1737;-44
2023/01/27 16:41:14;;;;;;;;;;;;;;;;;;5034451;28;1567;-40
2023/01/27 16:43:41;;;;;;;;;;;;;;;;;;5034157;28;1688;-43
2023/01/27 16:46:23;;;;;;;;;;;;;;;;;;5034628;28;1820;-45
2023/01/27 16:48:51;;;;;;;;;;;;;;;;;;5033726;28;1977;-42
2023/01/27 16:51:23;;;;;;;;;;;;;;;;;;5016889;28;1838;-42
2023/01/27 16:53:52;;;;;;;;;;;;;;;;;;5033990;28;2162;-45
2023/01/27 16:56:22;;;;;;;;;;;;;;;;;;5034247;28;2021;-43
2023/01/27 16:58:49;;;;;;;;;;;;;;;;;;5034028;28;2074;-42
2023/01/27 17:01:40;;;;;;;;;;;;;;;;;;5034241;28;1594;-45
2023/01/27 17:04:13;;;;;;;;;;;;;;;;;;5024447;28;1941;-43
2023/01/27 17:06:47;;;;;;;;;;;;;;;;;;5034145;28;2059;-43
2023/01/27 17:09:20;;;;;;;;;;;;;;;;;;5034385;28;1906;-45
2023/01/27 17:11:48;;;;;;;;;;;;;;;;;;5033775;28;1781;-43
2023/01/27 17:14:15;;;;;;;;;;;;;;;;;;5033937;28;1670;-42
2023/01/27 17:17:00;;;;;;;;;;;;;;;;;;5033805;28;1529;-43
2023/01/27 17:19:30;;;;;;;;;;;;;;;;;;5033721;28;2014;-41
2023/01/27 17:21:59;;;;;;;;;;;;;;;;;;5033448;28;1868;-44
2023/01/27 17:24:30;;;;;;;;;;;;;;;;;;5033397;28;1701;-44
2023/01/27 17:26:58;;;;;;;;;;;;;;;;;;5039327;28;2038;-45
2023/01/27 17:29:31;;;;;;;;;;;;;;;;;;5053474;28;1919;-47
2023/01/27 17:31:58;;;;;;;;;;;;;;;;;;5053328;28;1837;-43
2023/01/27 17:34:25;;;;;;;;;;;;;;;;;;5035711;28;1175;-42
2023/01/27 17:37:06;;;;;;;;;;;;;;;;;;5053050;28;1913;-41
2023/01/27 17:39:37;;;;;;;;;;;;;;;;;;5053266;28;2208;-44
2023/01/27 17:42:04;;;;;;;;;;;;;;;;;;5052970;28;2091;-46
2023/01/27 17:44:32;;;;;;;;;;;;;;;;;;5052836;28;1582;-44
2023/01/27 17:47:00;;;;;;;;;;;;;;;;;;5053166;28;1785;-43
2023/01/27 17:49:29;;;;;;;;;;;;;;;;;;5051879;28;2002;-43
2023/01/27 17:51:58;;;;;;;;;;;;;;;;;;5053158;28;2022;-42
2023/01/27 17:54:28;;;;;;;;;;;;;;;;;;5052578;28;1143;-44
2023/01/27 17:56:59;;;;;;;;;;;;;;;;;;5053085;28;1821;-43
2023/01/27 17:59:27;;;;;;;;;;;;;;;;;;5052965;28;1852;-46
2023/01/27 18:01:55;;;;;;;;;;;;;;;;;;5052560;28;1808;-43
2023/01/27 18:04:22;;;;;;;;;;;;;;;;;;5052992;28;1993;-43
2023/01/27 18:06:50;;;;;;;;;;;;;;;;;;5052897;28;1983;-44
2023/01/27 18:09:23;;;;;;;;;;;;;;;;;;5052724;28;2166;-46